sensor_id;sensor_type;location;lat;lon;timestamp;pressure;altitude;pressure_sealevel;temperature;humidity
12360;BME280;6244;51.460;7.090;2023-02-23T00:01:12;100301.25;;;11.59;70.04
12360;BME280;6244;51.460;7.090;2023-02-23T00:06:10;100296.09;;;11.57;69.99
12360;BME280;6244;51.460;7.090;2023-02-23T00:11:09;100293.56;;;11.56;70.23
12360;BME280;6244;51.460;7.090;2023-02-23T00:16:08;100300.72;;;11.54;70.20
12360;BME280;6244;51.460;7.090;2023-02-23T00:21:08;100291.22;;;11.51;70.25
12360;BME280;6244;51.460;7.090;2023-02-23T00:26:09;100282.69;;;11.47;70.69
12360;BME280;6244;51.460;7.090;2023-02-23T00:31:08;100290.47;;;11.49;70.55
12360;BME280;6244;51.460;7.090;2023-02-23T00:36:06;100289.72;;;11.47;70.57
12360;BME280;6244;51.460;7.090;2023-02-23T00:41:06;100281.94;;;11.45;70.37
12360;BME280;6244;51.460;7.090;2023-02-23T00:46:04;100282.03;;;11.44;70.73
12360;BME280;6244;51.460;7.090;2023-02-23T00:51:03;100280.34;;;11.43;70.68
12360;BME280;6244;51.460;7.090;2023-02-23T00:56:02;100285.69;;;11.41;70.80
12360;BME280;6244;51.460;7.090;2023-02-23T01:01:00;100283.13;;;11.40;71.01
12360;BME280;6244;51.460;7.090;2023-02-23T01:05:58;100285.00;;;11.38;70.92
12360;BME280;6244;51.460;7.090;2023-02-23T01:11:03;100278.91;;;11.37;71.00
12360;BME280;6244;51.460;7.090;2023-02-23T01:16:04;100286.97;;;11.34;70.88
12360;BME280;6244;51.460;7.090;2023-02-23T01:21:01;100281.72;;;11.34;71.31
12360;BME280;6244;51.460;7.090;2023-02-23T01:25:59;100289.72;;;11.33;71.41
12360;BME280;6244;51.460;7.090;2023-02-23T01:30:56;100290.66;;;11.32;71.36
12360;BME280;6244;51.460;7.090;2023-02-23T01:35:59;100288.22;;;11.29;71.56
12360;BME280;6244;51.460;7.090;2023-02-23T01:40:56;100280.31;;;11.29;71.29
12360;BME280;6244;51.460;7.090;2023-02-23T01:45:54;100287.34;;;11.28;71.61
12360;BME280;6244;51.460;7.090;2023-02-23T01:50:54;100284.91;;;11.25;71.62
12360;BME280;6244;51.460;7.090;2023-02-23T01:55:56;100290.16;;;11.25;71.58
12360;BME280;6244;51.460;7.090;2023-02-23T02:00:56;100284.91;;;11.25;71.55
12360;BME280;6244;51.460;7.090;2023-02-23T02:05:56;100278.91;;;11.23;71.59
12360;BME280;6244;51.460;7.090;2023-02-23T02:10:55;100281.63;;;11.22;71.72
12360;BME280;6244;51.460;7.090;2023-02-23T02:16:09;100271.31;;;11.18;71.79
12360;BME280;6244;51.460;7.090;2023-02-23T02:21:42;100270.56;;;11.16;71.89
12360;BME280;6244;51.460;7.090;2023-02-23T02:26:55;100274.03;;;11.17;71.98
12360;BME280;6244;51.460;7.090;2023-02-23T02:43:15;100265.38;;;11.15;72.12
12360;BME280;6244;51.460;7.090;2023-02-23T02:48:22;100258.53;;;11.12;72.16
12360;BME280;6244;51.460;7.090;2023-02-23T02:53:27;100261.16;;;11.12;72.12
12360;BME280;6244;51.460;7.090;2023-02-23T02:58:28;100264.72;;;11.11;72.29
12360;BME280;6244;51.460;7.090;2023-02-23T03:03:30;100263.03;;;11.10;72.19
12360;BME280;6244;51.460;7.090;2023-02-23T03:08:49;100259.56;;;11.10;72.24
12360;BME280;6244;51.460;7.090;2023-02-23T03:14:16;100267.63;;;11.07;72.36
12360;BME280;6244;51.460;7.090;2023-02-23T03:19:35;100268.47;;;11.07;72.39
12360;BME280;6244;51.460;7.090;2023-02-23T03:24:59;100269.50;;;11.05;72.47
12360;BME280;6244;51.460;7.090;2023-02-23T03:30:18;100268.66;;;11.04;72.59
12360;BME280;6244;51.460;7.090;2023-02-23T03:35:42;100264.50;;;11.00;72.63
12360;BME280;6244;51.460;7.090;2023-02-23T03:41:00;100279.41;;;11.00;72.83
12360;BME280;6244;51.460;7.090;2023-02-23T03:46:17;100274.16;;;11.00;72.78
12360;BME280;6244;51.460;7.090;2023-02-23T03:51:34;100269.84;;;10.99;72.70
12360;BME280;6244;51.460;7.090;2023-02-23T03:56:52;100269.94;;;10.97;72.91
12360;BME280;6244;51.460;7.090;2023-02-23T04:02:11;100274.34;;;10.97;72.76
12360;BME280;6244;51.460;7.090;2023-02-23T04:07:28;100278.94;;;10.93;72.97
12360;BME280;6244;51.460;7.090;2023-02-23T04:12:46;100279.88;;;10.92;73.04
12360;BME280;6244;51.460;7.090;2023-02-23T04:18:05;100279.03;;;10.92;73.10
12360;BME280;6244;51.460;7.090;2023-02-23T04:23:02;100281.72;;;10.90;73.03
12360;BME280;6244;51.460;7.090;2023-02-23T04:28:00;100284.28;;;10.92;72.93
12360;BME280;6244;51.460;7.090;2023-02-23T04:32:57;100286.13;;;10.89;73.18
12360;BME280;6244;51.460;7.090;2023-02-23T04:37:54;100283.59;;;10.88;73.14
12360;BME280;6244;51.460;7.090;2023-02-23T04:42:51;100290.72;;;10.86;73.03
12360;BME280;6244;51.460;7.090;2023-02-23T04:47:50;100283.03;;;10.83;73.09
12360;BME280;6244;51.460;7.090;2023-02-23T04:52:46;100287.34;;;10.84;73.31
12360;BME280;6244;51.460;7.090;2023-02-23T04:57:43;100287.44;;;10.82;73.24
12360;BME280;6244;51.460;7.090;2023-02-23T05:02:40;100294.38;;;10.83;73.28
12360;BME280;6244;51.460;7.090;2023-02-23T05:07:38;100301.41;;;10.83;73.18
12360;BME280;6244;51.460;7.090;2023-02-23T05:12:34;100290.41;;;10.76;73.17
12360;BME280;6244;51.460;7.090;2023-02-23T05:17:31;100301.59;;;10.80;73.42
12360;BME280;6244;51.460;7.090;2023-02-23T05:22:27;100302.50;;;10.79;73.36
12360;BME280;6244;51.460;7.090;2023-02-23T05:27:25;100299.97;;;10.77;73.39
12360;BME280;6244;51.460;7.090;2023-02-23T05:32:22;100305.22;;;10.77;73.38
12360;BME280;6244;51.460;7.090;2023-02-23T05:37:18;100309.69;;;10.75;73.64
12360;BME280;6244;51.460;7.090;2023-02-23T05:42:15;100311.47;;;10.75;73.52
12360;BME280;6244;51.460;7.090;2023-02-23T05:47:13;100299.38;;;10.72;73.53
12360;BME280;6244;51.460;7.090;2023-02-23T05:52:10;100314.19;;;10.73;73.53
12360;BME280;6244;51.460;7.090;2023-02-23T05:57:07;100304.81;;;10.69;73.43
12360;BME280;6244;51.460;7.090;2023-02-23T06:02:03;100316.06;;;10.71;73.59
12360;BME280;6244;51.460;7.090;2023-02-23T06:07:01;100315.31;;;10.69;73.70
12360;BME280;6244;51.460;7.090;2023-02-23T06:12:00;100311.16;;;10.65;73.78
12360;BME280;6244;51.460;7.090;2023-02-23T06:16:57;100324.13;;;10.68;73.70
12360;BME280;6244;51.460;7.090;2023-02-23T06:21:57;100329.47;;;10.67;73.61
12360;BME280;6244;51.460;7.090;2023-02-23T06:26:56;100334.72;;;10.67;73.72
12360;BME280;6244;51.460;7.090;2023-02-23T06:31:52;100336.56;;;10.65;73.63
12360;BME280;6244;51.460;7.090;2023-02-23T06:36:49;100341.97;;;10.62;73.84
12360;BME280;6244;51.460;7.090;2023-02-23T06:41:45;100340.19;;;10.62;73.81
12360;BME280;6244;51.460;7.090;2023-02-23T06:46:43;100347.22;;;10.62;73.69
12360;BME280;6244;51.460;7.090;2023-02-23T06:51:40;100360.34;;;10.62;74.01
12360;BME280;6244;51.460;7.090;2023-02-23T06:56:36;100364.09;;;10.57;73.77
12360;BME280;6244;51.460;7.090;2023-02-23T07:01:33;100365.16;;;10.53;73.78
12360;BME280;6244;51.460;7.090;2023-02-23T07:06:31;100371.03;;;10.58;73.97
12360;BME280;6244;51.460;7.090;2023-02-23T07:11:27;100369.50;;;10.54;73.78
12360;BME280;6244;51.460;7.090;2023-02-23T07:16:24;100384.22;;;10.57;73.99
12360;BME280;6244;51.460;7.090;2023-02-23T07:21:21;100384.38;;;10.54;74.06
12360;BME280;6244;51.460;7.090;2023-02-23T07:26:19;100387.78;;;10.56;73.96
12360;BME280;6244;51.460;7.090;2023-02-23T07:31:16;100394.09;;;10.52;73.99
12360;BME280;6244;51.460;7.090;2023-02-23T07:36:12;100399.28;;;10.53;73.99
12360;BME280;6244;51.460;7.090;2023-02-23T07:41:09;100391.50;;;10.52;74.07
12360;BME280;6244;51.460;7.090;2023-02-23T07:46:07;100380.50;;;10.45;74.33
12360;BME280;6244;51.460;7.090;2023-02-23T07:51:08;100389.03;;;10.49;74.24
12360;BME280;6244;51.460;7.090;2023-02-23T07:56:05;100402.91;;;10.51;74.24
12360;BME280;6244;51.460;7.090;2023-02-23T08:01:02;100398.25;;;10.40;74.16
12360;BME280;6244;51.460;7.090;2023-02-23T08:06:01;100417.91;;;10.49;74.43
12360;BME280;6244;51.460;7.090;2023-02-23T08:11:01;100423.22;;;10.47;74.18
12360;BME280;6244;51.460;7.090;2023-02-23T08:15:58;100416.59;;;10.40;74.49
12360;BME280;6244;51.460;7.090;2023-02-23T08:20:58;100427.88;;;10.42;74.11
12360;BME280;6244;51.460;7.090;2023-02-23T08:25:57;100424.47;;;10.40;74.33
12360;BME280;6244;51.460;7.090;2023-02-23T08:30:53;100428.22;;;10.36;74.32
12360;BME280;6244;51.460;7.090;2023-02-23T08:35:52;100421.66;;;10.27;74.56
12360;BME280;6244;51.460;7.090;2023-02-23T08:40:49;100445.53;;;10.39;74.48
12360;BME280;6244;51.460;7.090;2023-02-23T08:45:47;100449.00;;;10.39;74.52
12360;BME280;6244;51.460;7.090;2023-02-23T08:50:43;100467.38;;;10.39;74.35
12360;BME280;6244;51.460;7.090;2023-02-23T08:55:44;100460.44;;;10.38;74.52
12360;BME280;6244;51.460;7.090;2023-02-23T09:00:40;100456.97;;;10.38;74.29
12360;BME280;6244;51.460;7.090;2023-02-23T09:05:38;100462.31;;;10.36;74.37
12360;BME280;6244;51.460;7.090;2023-02-23T09:10:35;100452.28;;;10.27;74.58
12360;BME280;6244;51.460;7.090;2023-02-23T09:15:32;100465.84;;;10.35;74.56
12360;BME280;6244;51.460;7.090;2023-02-23T09:20:28;100470.25;;;10.35;74.56
12360;BME280;6244;51.460;7.090;2023-02-23T09:25:26;100453.31;;;10.24;74.34
12360;BME280;6244;51.460;7.090;2023-02-23T09:30:24;100477.38;;;10.33;74.93
12360;BME280;6244;51.460;7.090;2023-02-23T09:35:23;100473.81;;;10.34;74.83
12360;BME280;6244;51.460;7.090;2023-02-23T09:40:22;100481.59;;;10.35;74.56
12360;BME280;6244;51.460;7.090;2023-02-23T09:45:30;100474.91;;;10.29;74.49
12360;BME280;6244;51.460;7.090;2023-02-23T09:50:30;100482.59;;;10.33;74.86
12360;BME280;6244;51.460;7.090;2023-02-23T09:55:28;100483.44;;;10.33;74.62
12360;BME280;6244;51.460;7.090;2023-02-23T10:00:26;100489.38;;;10.37;74.53
12360;BME280;6244;51.460;7.090;2023-02-23T10:05:25;100494.13;;;10.30;74.60
12360;BME280;6244;51.460;7.090;2023-02-23T10:10:34;100503.41;;;10.36;74.49
12360;BME280;6244;51.460;7.090;2023-02-23T10:15:42;100496.72;;;10.30;74.58
12360;BME280;6244;51.460;7.090;2023-02-23T10:20:45;100508.06;;;10.31;74.65
12360;BME280;6244;51.460;7.090;2023-02-23T10:25:47;100497.03;;;10.24;74.53
12360;BME280;6244;51.460;7.090;2023-02-23T10:30:47;100516.53;;;10.36;74.75
12360;BME280;6244;51.460;7.090;2023-02-23T10:35:45;100491.16;;;10.19;74.80
12360;BME280;6244;51.460;7.090;2023-02-23T10:40:43;100516.78;;;10.31;74.76
12360;BME280;6244;51.460;7.090;2023-02-23T10:45:44;100523.56;;;10.35;74.70
12360;BME280;6244;51.460;7.090;2023-02-23T10:50:43;100509.31;;;10.23;74.47
12360;BME280;6244;51.460;7.090;2023-02-23T10:55:44;100526.19;;;10.35;74.57
12360;BME280;6244;51.460;7.090;2023-02-23T11:00:51;100523.81;;;10.31;74.61
12360;BME280;6244;51.460;7.090;2023-02-23T11:05:49;100514.63;;;10.22;74.69
12360;BME280;6244;51.460;7.090;2023-02-23T11:11:04;100513.84;;;10.20;74.62
12360;BME280;6244;51.460;7.090;2023-02-23T11:16:01;100534.06;;;10.18;74.98
12360;BME280;6244;51.460;7.090;2023-02-23T11:21:00;100530.13;;;10.26;74.71
12360;BME280;6244;51.460;7.090;2023-02-23T11:25:59;100535.53;;;10.23;74.68
12360;BME280;6244;51.460;7.090;2023-02-23T11:30:58;100540.59;;;10.26;74.55
12360;BME280;6244;51.460;7.090;2023-02-23T11:35:57;100532.81;;;10.25;74.68
12360;BME280;6244;51.460;7.090;2023-02-23T11:41:01;100524.94;;;10.25;74.70
12360;BME280;6244;51.460;7.090;2023-02-23T11:45:59;100532.81;;;10.25;74.64
12360;BME280;6244;51.460;7.090;2023-02-23T11:50:57;100537.13;;;10.26;74.88
12360;BME280;6244;51.460;7.090;2023-02-23T11:55:59;100522.34;;;10.25;74.78
12360;BME280;6244;51.460;7.090;2023-02-23T12:01:03;100534.59;;;10.24;74.64
12360;BME280;6244;51.460;7.090;2023-02-23T12:06:06;100535.53;;;10.23;74.66
12360;BME280;6244;51.460;7.090;2023-02-23T12:11:10;100533.84;;;10.22;74.52
12360;BME280;6244;51.460;7.090;2023-02-23T12:16:11;100528.63;;;10.21;74.67
12360;BME280;6244;51.460;7.090;2023-02-23T12:21:23;100512.06;;;10.20;74.54
12360;BME280;6244;51.460;7.090;2023-02-23T12:26:23;100511.16;;;10.21;74.61
12360;BME280;6244;51.460;7.090;2023-02-23T12:31:23;100518.09;;;10.22;74.39
12360;BME280;6244;51.460;7.090;2023-02-23T12:36:26;100524.31;;;10.20;74.56
12360;BME280;6244;51.460;7.090;2023-02-23T12:41:35;100521.78;;;10.18;74.60
12360;BME280;6244;51.460;7.090;2023-02-23T12:46:34;100527.78;;;10.20;74.32
12360;BME280;6244;51.460;7.090;2023-02-23T12:51:41;100520.94;;;10.18;74.47
12360;BME280;6244;51.460;7.090;2023-02-23T12:56:51;100529.78;;;10.15;74.32
12360;BME280;6244;51.460;7.090;2023-02-23T13:01:53;100518.44;;;10.15;74.35
12360;BME280;6244;51.460;7.090;2023-02-23T13:06:55;100527.25;;;10.14;74.25
12360;BME280;6244;51.460;7.090;2023-02-23T13:12:06;100525.56;;;10.13;74.44
12360;BME280;6244;51.460;7.090;2023-02-23T13:17:26;100529.94;;;10.12;74.37
12360;BME280;6244;51.460;7.090;2023-02-23T13:22:28;100530.78;;;10.13;74.35
12360;BME280;6244;51.460;7.090;2023-02-23T13:27:33;100528.25;;;10.11;74.08
12360;BME280;6244;51.460;7.090;2023-02-23T13:32:32;100528.25;;;10.11;73.93
12360;BME280;6244;51.460;7.090;2023-02-23T13:37:32;100533.59;;;10.10;74.04
12360;BME280;6244;51.460;7.090;2023-02-23T13:42:42;100536.38;;;10.07;73.95
12360;BME280;6244;51.460;7.090;2023-02-23T13:47:45;100542.38;;;10.09;73.99
12360;BME280;6244;51.460;7.090;2023-02-23T13:52:44;100549.41;;;10.08;73.71
12360;BME280;6244;51.460;7.090;2023-02-23T13:57:43;100544.22;;;10.07;73.72
12360;BME280;6244;51.460;7.090;2023-02-23T14:02:40;100539.97;;;10.04;73.68
12360;BME280;6244;51.460;7.090;2023-02-23T14:07:38;100539.13;;;10.04;73.55
12360;BME280;6244;51.460;7.090;2023-02-23T14:12:38;100543.53;;;10.03;73.44
12360;BME280;6244;51.460;7.090;2023-02-23T14:17:40;100542.75;;;10.01;73.52
12360;BME280;6244;51.460;7.090;2023-02-23T14:23:10;100539.53;;;9.96;73.24
12360;BME280;6244;51.460;7.090;2023-02-23T14:28:23;100543.91;;;9.95;73.24
12360;BME280;6244;51.460;7.090;2023-02-23T14:33:37;100543.91;;;9.95;73.49
12360;BME280;6244;51.460;7.090;2023-02-23T14:38:43;100538.53;;;9.98;72.97
12360;BME280;6244;51.460;7.090;2023-02-23T14:43:42;100546.31;;;10.00;73.18
12360;BME280;6244;51.460;7.090;2023-02-23T14:48:44;100548.06;;;9.99;73.06
12360;BME280;6244;51.460;7.090;2023-02-23T14:53:50;100552.56;;;9.97;72.98
12360;BME280;6244;51.460;7.090;2023-02-23T14:58:50;100545.53;;;9.98;72.51
12360;BME280;6244;51.460;7.090;2023-02-23T15:04:08;100554.41;;;9.95;72.91
12360;BME280;6244;51.460;7.090;2023-02-23T15:09:06;100554.25;;;9.98;72.95
12360;BME280;6244;51.460;7.090;2023-02-23T15:14:03;100550.63;;;10.01;73.06
12360;BME280;6244;51.460;7.090;2023-02-23T15:19:29;100554.41;;;9.95;73.02
12360;BME280;6244;51.460;7.090;2023-02-23T15:24:31;100558.56;;;9.99;72.90
12360;BME280;6244;51.460;7.090;2023-02-23T15:29:31;100549.78;;;10.00;72.84
12360;BME280;6244;51.460;7.090;2023-02-23T15:34:30;100553.25;;;10.01;73.05
12360;BME280;6244;51.460;7.090;2023-02-23T15:39:34;100551.53;;;10.00;73.06
12360;BME280;6244;51.460;7.090;2023-02-23T15:44:34;100552.41;;;10.00;73.14
12360;BME280;6244;51.460;7.090;2023-02-23T15:49:36;100556.78;;;10.00;73.00
12360;BME280;6244;51.460;7.090;2023-02-23T15:54:38;100552.41;;;10.00;73.45
12360;BME280;6244;51.460;7.090;2023-02-23T15:59:40;100549.00;;;9.98;73.29
12360;BME280;6244;51.460;7.090;2023-02-23T16:04:42;100545.47;;;9.99;73.16
12360;BME280;6244;51.460;7.090;2023-02-23T16:09:48;100541.22;;;9.97;73.40
12360;BME280;6244;51.460;7.090;2023-02-23T16:14:48;100549.09;;;9.97;73.37
12360;BME280;6244;51.460;7.090;2023-02-23T16:19:46;100549.94;;;9.97;73.44
12360;BME280;6244;51.460;7.090;2023-02-23T16:24:43;100545.63;;;9.96;73.26
12360;BME280;6244;51.460;7.090;2023-02-23T16:29:40;100545.63;;;9.96;73.27
12360;BME280;6244;51.460;7.090;2023-02-23T16:34:49;100546.72;;;9.92;73.30
12360;BME280;6244;51.460;7.090;2023-02-23T16:39:46;100544.84;;;9.94;73.28
12360;BME280;6244;51.460;7.090;2023-02-23T16:44:43;100546.72;;;9.92;73.47
12360;BME280;6244;51.460;7.090;2023-02-23T16:49:41;100558.88;;;9.93;73.09
12360;BME280;6244;51.460;7.090;2023-02-23T16:54:39;100544.28;;;9.88;72.65
12360;BME280;6244;51.460;7.090;2023-02-23T16:59:35;100549.13;;;9.78;72.43
12360;BME280;6244;51.460;7.090;2023-02-23T17:04:32;100557.31;;;9.72;72.71
12360;BME280;6244;51.460;7.090;2023-02-23T17:09:29;100560.09;;;9.69;72.86
12360;BME280;6244;51.460;7.090;2023-02-23T17:14:26;100569.72;;;9.68;72.68
12360;BME280;6244;51.460;7.090;2023-02-23T17:19:25;100571.50;;;9.68;72.91
12360;BME280;6244;51.460;7.090;2023-02-23T17:24:22;100578.56;;;9.66;72.82
12360;BME280;6244;51.460;7.090;2023-02-23T17:29:20;100577.63;;;9.67;73.05
12360;BME280;6244;51.460;7.090;2023-02-23T17:34:18;100579.81;;;9.76;73.39
12360;BME280;6244;51.460;7.090;2023-02-23T17:39:14;100582.59;;;9.90;73.68
12360;BME280;6244;51.460;7.090;2023-02-23T17:44:11;100588.03;;;10.05;73.72
12360;BME280;6244;51.460;7.090;2023-02-23T17:49:07;100586.50;;;10.18;73.87
12360;BME280;6244;51.460;7.090;2023-02-23T17:54:05;100583.50;;;10.25;73.70
12360;BME280;6244;51.460;7.090;2023-02-23T17:59:02;100587.59;;;10.31;73.15
12360;BME280;6244;51.460;7.090;2023-02-23T18:03:59;100581.19;;;10.37;73.26
12360;BME280;6244;51.460;7.090;2023-02-23T18:08:56;100588.03;;;10.39;72.86
12360;BME280;6244;51.460;7.090;2023-02-23T18:13:54;100582.09;;;10.36;72.58
12360;BME280;6244;51.460;7.090;2023-02-23T18:18:50;100594.69;;;10.46;72.49
12360;BME280;6244;51.460;7.090;2023-02-23T18:23:48;100595.53;;;10.47;72.09
12360;BME280;6244;51.460;7.090;2023-02-23T18:28:45;100591.97;;;10.48;72.12
12360;BME280;6244;51.460;7.090;2023-02-23T18:33:44;100585.13;;;10.45;71.77
12360;BME280;6244;51.460;7.090;2023-02-23T18:38:42;100595.44;;;10.48;71.70
12360;BME280;6244;51.460;7.090;2023-02-23T18:43:40;100599.84;;;10.48;71.57
12360;BME280;6244;51.460;7.090;2023-02-23T18:48:40;100600.94;;;10.44;71.60
12360;BME280;6244;51.460;7.090;2023-02-23T18:53:41;100583.81;;;10.37;71.25
12360;BME280;6244;51.460;7.090;2023-02-23T18:58:39;100604.41;;;10.44;71.12
12360;BME280;6244;51.460;7.090;2023-02-23T19:03:36;100597.53;;;10.42;71.12
12360;BME280;6244;51.460;7.090;2023-02-23T19:08:35;100599.44;;;10.38;71.12
12360;BME280;6244;51.460;7.090;2023-02-23T19:13:33;100597.59;;;10.40;71.10
12360;BME280;6244;51.460;7.090;2023-02-23T19:18:32;100602.84;;;10.40;71.18
12360;BME280;6244;51.460;7.090;2023-02-23T19:23:29;100598.53;;;10.39;71.10
12360;BME280;6244;51.460;7.090;2023-02-23T19:28:26;100571.41;;;10.23;71.08
12360;BME280;6244;51.460;7.090;2023-02-23T19:33:25;100585.56;;;10.36;71.19
12360;BME280;6244;51.460;7.090;2023-02-23T19:38:22;100567.47;;;10.32;71.27
12360;BME280;6244;51.460;7.090;2023-02-23T19:43:19;100569.25;;;10.31;71.27
12360;BME280;6244;51.460;7.090;2023-02-23T19:48:16;100561.84;;;10.22;71.42
12360;BME280;6244;51.460;7.090;2023-02-23T19:53:14;100592.13;;;10.27;71.20
12360;BME280;6244;51.460;7.090;2023-02-23T19:58:14;100575.16;;;10.17;71.50
12360;BME280;6244;51.460;7.090;2023-02-23T20:03:12;100595.84;;;10.23;71.58
12360;BME280;6244;51.460;7.090;2023-02-23T20:08:15;100576.38;;;10.10;71.53
12360;BME280;6244;51.460;7.090;2023-02-23T20:13:15;100566.75;;;10.11;72.00
12360;BME280;6244;51.460;7.090;2023-02-23T20:18:15;100573.06;;;10.07;71.67
12360;BME280;6244;51.460;7.090;2023-02-23T20:23:15;100588.41;;;10.14;71.62
12360;BME280;6244;51.460;7.090;2023-02-23T20:28:12;100593.44;;;10.19;71.75
12360;BME280;6244;51.460;7.090;2023-02-23T20:33:09;100569.03;;;9.99;71.62
12360;BME280;6244;51.460;7.090;2023-02-23T20:38:07;100566.44;;;9.99;71.49
12360;BME280;6244;51.460;7.090;2023-02-23T20:43:07;100585.84;;;10.13;71.37
12360;BME280;6244;51.460;7.090;2023-02-23T20:48:05;100590.25;;;10.12;71.77
12360;BME280;6244;51.460;7.090;2023-02-23T20:53:04;100579.25;;;10.06;71.57
12360;BME280;6244;51.460;7.090;2023-02-23T20:58:02;100603.44;;;10.11;71.50
12360;BME280;6244;51.460;7.090;2023-02-23T21:03:02;100602.00;;;10.05;71.55
12360;BME280;6244;51.460;7.090;2023-02-23T21:08:01;100587.56;;;9.96;71.41
12360;BME280;6244;51.460;7.090;2023-02-23T21:12:58;100586.16;;;9.89;71.42
12360;BME280;6244;51.460;7.090;2023-02-23T21:17:56;100600.75;;;9.95;71.34
12360;BME280;6244;51.460;7.090;2023-02-23T21:22:55;100589.63;;;9.90;71.28
12360;BME280;6244;51.460;7.090;2023-02-23T21:27:53;100579.91;;;9.75;71.31
12360;BME280;6244;51.460;7.090;2023-02-23T21:32:51;100589.09;;;9.83;71.24
12360;BME280;6244;51.460;7.090;2023-02-23T21:37:51;100598.81;;;9.81;71.12
12360;BME280;6244;51.460;7.090;2023-02-23T21:42:49;100597.16;;;9.79;71.15
12360;BME280;6244;51.460;7.090;2023-02-23T21:47:47;100597.22;;;9.77;70.86
12360;BME280;6244;51.460;7.090;2023-02-23T21:52:48;100598.31;;;9.73;71.11
12360;BME280;6244;51.460;7.090;2023-02-23T21:57:49;100595.94;;;9.68;70.73
12360;BME280;6244;51.460;7.090;2023-02-23T22:02:46;100593.31;;;9.68;70.90
12360;BME280;6244;51.460;7.090;2023-02-23T22:07:46;100589.03;;;9.66;70.81
12360;BME280;6244;51.460;7.090;2023-02-23T22:12:43;100588.34;;;9.62;70.63
12360;BME280;6244;51.460;7.090;2023-02-23T22:17:41;100585.81;;;9.61;70.79
12360;BME280;6244;51.460;7.090;2023-02-23T22:22:38;100583.97;;;9.63;70.73
12360;BME280;6244;51.460;7.090;2023-02-23T22:27:35;100576.31;;;9.58;70.92
12360;BME280;6244;51.460;7.090;2023-02-23T22:32:32;100578.72;;;9.63;70.74
12360;BME280;6244;51.460;7.090;2023-02-23T22:37:30;100584.97;;;9.60;70.88
12360;BME280;6244;51.460;7.090;2023-02-23T22:42:26;100565.22;;;9.53;70.50
12360;BME280;6244;51.460;7.090;2023-02-23T22:47:26;100583.34;;;9.58;70.65
12360;BME280;6244;51.460;7.090;2023-02-23T22:52:23;100571.25;;;9.55;70.31
12360;BME280;6244;51.460;7.090;2023-02-23T22:57:22;100581.75;;;9.54;70.45
12360;BME280;6244;51.460;7.090;2023-02-23T23:02:19;100577.59;;;9.50;70.46
12360;BME280;6244;51.460;7.090;2023-02-23T23:07:15;100556.25;;;9.40;70.29
12360;BME280;6244;51.460;7.090;2023-02-23T23:12:14;100557.16;;;9.39;70.16
12360;BME280;6244;51.460;7.090;2023-02-23T23:17:15;100570.06;;;9.44;69.95
12360;BME280;6244;51.460;7.090;2023-02-23T23:22:11;100553.09;;;9.33;69.80
12360;BME280;6244;51.460;7.090;2023-02-23T23:27:08;100560.84;;;9.35;70.04
12360;BME280;6244;51.460;7.090;2023-02-23T23:32:05;100569.41;;;9.38;69.70
12360;BME280;6244;51.460;7.090;2023-02-23T23:37:03;100570.41;;;9.36;69.51
12360;BME280;6244;51.460;7.090;2023-02-23T23:42:00;100554.44;;;9.23;69.38
12360;BME280;6244;51.460;7.090;2023-02-23T23:46:59;100563.72;;;9.30;69.39
12360;BME280;6244;51.460;7.090;2023-02-23T23:51:59;100557.19;;;9.20;69.63
12360;BME280;6244;51.460;7.090;2023-02-23T23:56:57;100548.41;;;9.21;69.33
